createdAt,value
2018-12-31T00:01:05.945Z,17.87
2018-12-31T00:03:36.646Z,20.23
2018-12-31T00:06:08.115Z,19.70
2018-12-31T00:08:38.516Z,16.40
2018-12-31T00:11:09.399Z,18.97
2018-12-31T00:13:46.285Z,18.20
2018-12-31T00:16:21.921Z,22.73
2018-12-31T00:18:56.669Z,23.63
2018-12-31T00:21:31.614Z,18.47
2018-12-31T00:24:02.480Z,17.93
2018-12-31T00:26:35.026Z,18.73
2018-12-31T00:29:06.988Z,15.73
2018-12-31T00:31:45.827Z,15.10
2018-12-31T00:34:18.185Z,16.07
2018-12-31T00:36:50.596Z,59.93
2018-12-31T00:39:26.328Z,16.50
2018-12-31T00:41:56.893Z,12.23
2018-12-31T00:44:33.775Z,15.33
2018-12-31T00:47:03.887Z,11.93
2018-12-31T00:49:34.362Z,13.07
2018-12-31T00:52:09.502Z,11.97
2018-12-31T00:54:46.622Z,9.33
2018-12-31T00:57:20.403Z,14.47
2018-12-31T01:00:01.624Z,13.67
2018-12-31T01:02:33.069Z,13.00
2018-12-31T01:05:03.588Z,12.10
2018-12-31T01:07:37.861Z,12.90
2018-12-31T01:10:08.226Z,13.33
2018-12-31T01:12:39.286Z,12.20
2018-12-31T01:15:11.084Z,11.83
2018-12-31T01:17:42.966Z,13.93
2018-12-31T01:20:15.412Z,14.30
2018-12-31T01:22:49.934Z,13.63
2018-12-31T01:25:21.565Z,11.93
2018-12-31T01:27:53.834Z,13.40
2018-12-31T01:30:27.049Z,13.73
2018-12-31T01:33:01.285Z,13.53
2018-12-31T01:35:37.448Z,12.60
2018-12-31T01:38:12.605Z,16.17
2018-12-31T01:40:46.738Z,14.80
2018-12-31T01:43:20.441Z,13.20
2018-12-31T01:45:52.295Z,15.23
2018-12-31T01:48:22.804Z,19.30
2018-12-31T01:50:55.194Z,16.40
2018-12-31T01:53:25.770Z,19.60
2018-12-31T01:55:57.199Z,18.03
2018-12-31T01:58:27.529Z,21.00
2018-12-31T02:00:57.881Z,16.60
2018-12-31T02:03:28.744Z,18.73
2018-12-31T02:05:59.624Z,18.07
2018-12-31T02:08:30.786Z,16.70
2018-12-31T02:11:02.348Z,15.87
2018-12-31T02:13:33.147Z,14.33
2018-12-31T02:16:04.326Z,14.53
2018-12-31T02:18:35.770Z,14.50
2018-12-31T02:21:07.030Z,15.77
2018-12-31T02:23:37.644Z,13.20
2018-12-31T02:26:09.110Z,13.37
2018-12-31T02:28:40.744Z,19.07
2018-12-31T02:31:12.374Z,15.43
2018-12-31T02:33:43.173Z,16.03
2018-12-31T02:36:13.685Z,17.77
2018-12-31T02:38:44.289Z,18.97
2018-12-31T02:41:15.243Z,18.03
2018-12-31T02:43:46.866Z,20.93
2018-12-31T02:46:17.436Z,20.47
2018-12-31T02:48:48.704Z,21.83
2018-12-31T02:51:20.115Z,19.13
2018-12-31T02:53:50.949Z,22.37
2018-12-31T02:56:21.703Z,21.37
2018-12-31T02:58:52.763Z,21.07
2018-12-31T03:01:24.940Z,22.27
2018-12-31T03:03:56.042Z,25.37
2018-12-31T03:06:26.649Z,21.30
2018-12-31T03:08:57.075Z,20.43
2018-12-31T03:11:27.458Z,22.47
2018-12-31T03:13:57.715Z,17.23
2018-12-31T03:16:27.934Z,20.60
2018-12-31T03:18:58.612Z,15.47
2018-12-31T03:21:29.131Z,16.10
2018-12-31T03:23:59.940Z,14.50
2018-12-31T03:26:30.224Z,14.17
2018-12-31T03:29:00.617Z,11.93
2018-12-31T03:31:30.802Z,11.80
2018-12-31T03:34:01.084Z,9.53
2018-12-31T03:36:31.803Z,9.83
2018-12-31T03:39:02.044Z,9.03
2018-12-31T03:41:33.048Z,8.53
2018-12-31T03:44:03.319Z,10.60
2018-12-31T03:46:33.738Z,11.17
2018-12-31T03:49:04.100Z,14.80
2018-12-31T03:51:35.085Z,8.63
2018-12-31T03:54:05.827Z,7.97
2018-12-31T03:56:36.694Z,8.10
2018-12-31T03:59:07.349Z,8.00
2018-12-31T04:01:37.988Z,10.23
2018-12-31T04:04:08.444Z,10.17
2018-12-31T04:06:39.208Z,7.13
2018-12-31T04:09:10.066Z,6.30
2018-12-31T04:11:40.713Z,6.27
2018-12-31T04:14:10.959Z,5.50
2018-12-31T04:16:41.770Z,7.80
2018-12-31T04:19:12.240Z,10.13
2018-12-31T04:21:43.436Z,5.43
2018-12-31T04:24:13.619Z,5.73
2018-12-31T04:26:43.977Z,5.10
2018-12-31T04:29:14.310Z,6.60
2018-12-31T04:31:44.911Z,4.80
2018-12-31T04:34:15.165Z,4.53
2018-12-31T04:36:46.046Z,5.57
2018-12-31T04:39:17.050Z,5.63
2018-12-31T04:41:48.162Z,8.40
2018-12-31T04:44:19.032Z,8.23
2018-12-31T04:46:49.850Z,5.90
2018-12-31T04:49:21.232Z,5.47
2018-12-31T04:51:52.734Z,5.57
2018-12-31T04:54:23.774Z,7.13
2018-12-31T04:56:54.546Z,6.17
2018-12-31T04:59:25.565Z,5.53
2018-12-31T05:01:56.681Z,5.37
2018-12-31T05:04:27.794Z,5.40
2018-12-31T05:06:58.714Z,4.00
2018-12-31T05:09:29.935Z,5.30
2018-12-31T05:12:00.984Z,3.27
2018-12-31T05:14:33.090Z,4.43
2018-12-31T05:17:03.626Z,4.23
2018-12-31T05:19:36.437Z,4.53
2018-12-31T05:22:07.176Z,5.27
2018-12-31T05:24:38.141Z,4.30
2018-12-31T05:27:09.020Z,4.97
2018-12-31T05:29:40.075Z,5.00
2018-12-31T05:32:11.033Z,4.87
2018-12-31T05:34:41.638Z,4.23
2018-12-31T05:37:12.676Z,4.40
2018-12-31T05:39:44.888Z,2.60
2018-12-31T05:42:15.688Z,2.23
2018-12-31T05:44:46.749Z,2.70
2018-12-31T05:47:17.784Z,3.83
2018-12-31T05:49:49.080Z,4.47
2018-12-31T05:52:20.075Z,5.63
2018-12-31T05:54:50.336Z,3.10
2018-12-31T05:57:21.615Z,2.07
2018-12-31T05:59:52.004Z,2.17
2018-12-31T06:02:23.029Z,2.30
2018-12-31T06:04:53.764Z,2.93
2018-12-31T06:07:24.158Z,2.73
2018-12-31T06:09:54.803Z,2.70
2018-12-31T06:12:25.508Z,4.50
2018-12-31T06:14:56.413Z,3.17
2018-12-31T06:17:27.804Z,3.67
2018-12-31T06:19:58.988Z,3.97
2018-12-31T06:22:30.006Z,3.10
2018-12-31T06:25:01.056Z,5.27
2018-12-31T06:27:32.232Z,2.57
2018-12-31T06:30:03.695Z,3.07
2018-12-31T06:32:34.507Z,2.60
2018-12-31T06:35:05.724Z,2.85
2018-12-31T06:37:36.759Z,2.87
2018-12-31T06:40:08.251Z,2.70
2018-12-31T06:42:42.476Z,4.67
2018-12-31T06:45:13.418Z,2.83
2018-12-31T06:47:44.243Z,5.43
2018-12-31T06:50:14.914Z,2.30
2018-12-31T06:52:45.128Z,2.73
2018-12-31T06:55:15.628Z,4.20
2018-12-31T06:57:46.446Z,6.03
2018-12-31T07:00:16.884Z,3.40
2018-12-31T07:02:47.359Z,3.80
2018-12-31T07:05:19.191Z,4.50
2018-12-31T07:07:50.124Z,3.10
2018-12-31T07:10:21.768Z,3.83
2018-12-31T07:12:52.619Z,4.43
2018-12-31T07:15:24.008Z,5.53
2018-12-31T07:17:55.699Z,4.60
2018-12-31T07:20:26.971Z,3.07
2018-12-31T07:22:58.737Z,2.10
2018-12-31T07:25:29.690Z,5.90
2018-12-31T07:28:01.006Z,3.27
2018-12-31T07:30:32.561Z,5.60
2018-12-31T07:33:03.507Z,7.77
2018-12-31T07:35:34.786Z,6.27
2018-12-31T07:38:05.880Z,3.67
2018-12-31T07:40:36.967Z,4.37
2018-12-31T07:43:09.596Z,6.07
2018-12-31T07:45:41.975Z,7.57
2018-12-31T07:48:12.619Z,8.70
2018-12-31T07:50:43.529Z,6.47
2018-12-31T07:53:13.799Z,6.23
2018-12-31T07:55:44.272Z,8.50
2018-12-31T07:58:14.544Z,3.63
2018-12-31T08:00:46.024Z,5.27
2018-12-31T08:03:17.028Z,6.83
2018-12-31T08:05:48.470Z,5.00
2018-12-31T08:08:19.615Z,4.30
2018-12-31T08:10:51.095Z,11.93
2018-12-31T08:13:22.201Z,10.27
2018-12-31T08:15:53.258Z,9.23
2018-12-31T08:18:24.316Z,5.90
2018-12-31T08:20:54.959Z,6.47
2018-12-31T08:23:25.794Z,11.00
2018-12-31T08:25:56.899Z,8.43
2018-12-31T08:28:27.598Z,6.50
2018-12-31T08:30:57.874Z,6.53
2018-12-31T08:33:28.118Z,5.83
2018-12-31T08:35:59.655Z,7.20
2018-12-31T08:38:30.922Z,7.60
2018-12-31T08:41:02.738Z,6.90
2018-12-31T08:43:33.569Z,6.73
2018-12-31T08:46:04.159Z,5.10
2018-12-31T08:48:34.658Z,8.43
2018-12-31T08:51:05.785Z,3.80
2018-12-31T08:53:36.585Z,7.93
2018-12-31T08:56:07.625Z,9.73
2018-12-31T08:58:38.547Z,14.27
2018-12-31T09:01:09.506Z,11.20
2018-12-31T09:03:40.707Z,5.43
2018-12-31T09:06:11.816Z,6.80
2018-12-31T09:08:42.290Z,12.63
2018-12-31T09:11:23.917Z,13.87
2018-12-31T09:14:05.492Z,7.30
2018-12-31T09:16:41.267Z,12.57
2018-12-31T09:19:15.578Z,4.47
2018-12-31T09:21:55.649Z,6.47
2018-12-31T09:24:31.476Z,4.97
2018-12-31T09:27:19.278Z,9.53
2018-12-31T09:29:54.279Z,9.90
2018-12-31T09:32:35.149Z,8.47
2018-12-31T09:35:10.319Z,5.17
2018-12-31T09:37:44.407Z,6.87
2018-12-31T09:40:30.112Z,12.73
2018-12-31T09:43:06.038Z,11.37
2018-12-31T09:45:37.004Z,6.33
2018-12-31T09:48:07.742Z,5.60
2018-12-31T09:50:39.476Z,7.23
2018-12-31T09:53:20.467Z,6.90
2018-12-31T09:55:55.609Z,8.97
2018-12-31T09:58:27.358Z,5.00
2018-12-31T10:01:06.467Z,5.77
2018-12-31T10:03:42.507Z,5.50
2018-12-31T10:06:13.083Z,8.20
2018-12-31T10:08:58.549Z,4.97
2018-12-31T10:11:39.663Z,5.77
2018-12-31T10:14:21.487Z,8.03
2018-12-31T10:16:59.137Z,6.77
2018-12-31T10:19:38.880Z,11.40
2018-12-31T10:22:16.105Z,43.37
2018-12-31T10:24:52.361Z,7.43
2018-12-31T10:27:33.479Z,9.23
2018-12-31T10:30:07.605Z,9.40
2018-12-31T10:32:40.798Z,14.67
2018-12-31T10:35:17.861Z,7.87
2018-12-31T10:37:54.957Z,6.33
2018-12-31T10:40:38.250Z,13.57
2018-12-31T10:43:18.970Z,6.40
2018-12-31T10:45:49.970Z,8.40
2018-12-31T10:48:30.471Z,9.57
2018-12-31T10:51:02.221Z,13.33
2018-12-31T10:53:33.242Z,6.90
2018-12-31T10:56:04.462Z,21.03
2018-12-31T10:58:35.313Z,9.03
2018-12-31T11:01:06.154Z,21.13
2018-12-31T11:03:37.305Z,9.83
2018-12-31T11:06:08.569Z,5.97
2018-12-31T11:08:39.415Z,4.63
2018-12-31T11:11:10.926Z,6.17
2018-12-31T11:13:41.785Z,6.47
2018-12-31T11:16:13.135Z,7.87
2018-12-31T11:18:43.549Z,8.27
2018-12-31T11:21:13.926Z,8.40
2018-12-31T11:23:44.054Z,6.33
2018-12-31T11:26:15.177Z,8.00
2018-12-31T11:28:45.835Z,7.37
2018-12-31T11:31:17.100Z,6.93
2018-12-31T11:33:48.112Z,12.07
2018-12-31T11:36:18.342Z,3.97
2018-12-31T11:38:48.685Z,8.20
2018-12-31T11:41:19.265Z,7.77
2018-12-31T11:43:49.753Z,9.23
2018-12-31T11:46:20.394Z,9.73
2018-12-31T11:48:50.554Z,15.63
2018-12-31T11:51:20.879Z,9.77
2018-12-31T11:53:50.949Z,8.87
2018-12-31T11:56:22.295Z,8.53
2018-12-31T11:58:52.519Z,10.90
2018-12-31T12:01:23.118Z,12.63
2018-12-31T12:03:54.476Z,10.40
2018-12-31T12:06:25.830Z,14.93
2018-12-31T12:08:56.144Z,10.30
2018-12-31T12:11:26.396Z,8.27
2018-12-31T12:13:58.731Z,14.77
2018-12-31T12:16:29.856Z,16.47
2018-12-31T12:19:01.254Z,11.77
2018-12-31T12:21:31.616Z,8.10
2018-12-31T12:24:01.969Z,10.17
2018-12-31T12:26:32.819Z,8.73
2018-12-31T12:29:04.218Z,10.37
2018-12-31T12:31:35.819Z,10.07
2018-12-31T12:34:07.474Z,10.73
2018-12-31T12:36:38.392Z,8.23
2018-12-31T12:39:09.743Z,9.33
2018-12-31T12:41:40.662Z,9.37
2018-12-31T12:44:12.126Z,7.60
2018-12-31T12:46:42.579Z,10.63
2018-12-31T12:49:12.960Z,4.60
2018-12-31T12:51:43.303Z,8.23
2018-12-31T12:54:14.517Z,9.47
2018-12-31T12:56:45.270Z,10.30
2018-12-31T12:59:15.908Z,7.53
2018-12-31T13:01:47.039Z,16.30
2018-12-31T13:04:20.029Z,17.67
2018-12-31T13:06:51.132Z,10.40
2018-12-31T13:09:22.043Z,8.40
2018-12-31T13:11:52.938Z,14.20
2018-12-31T13:14:26.121Z,11.03
2018-12-31T13:16:57.964Z,15.83
2018-12-31T13:19:28.677Z,9.90
2018-12-31T13:21:59.262Z,12.00
2018-12-31T13:24:30.394Z,6.73
2018-12-31T13:27:00.814Z,3.90
2018-12-31T13:29:31.881Z,8.43
2018-12-31T13:32:02.432Z,7.63
2018-12-31T13:34:34.037Z,5.47
2018-12-31T13:37:05.109Z,5.27
2018-12-31T13:39:35.858Z,7.27
2018-12-31T13:42:06.283Z,5.40
2018-12-31T13:44:37.305Z,8.47
2018-12-31T13:47:08.197Z,7.30
2018-12-31T13:49:39.695Z,7.87
2018-12-31T13:52:10.326Z,9.33
2018-12-31T13:54:41.866Z,7.17
2018-12-31T13:57:13.847Z,11.33
2018-12-31T13:59:44.978Z,11.17
2018-12-31T14:02:15.748Z,11.27
2018-12-31T14:04:46.590Z,13.10
2018-12-31T14:07:17.255Z,12.50
2018-12-31T14:09:48.099Z,6.10
2018-12-31T14:12:18.840Z,9.23
2018-12-31T14:14:49.377Z,15.20
2018-12-31T14:17:20.106Z,16.03
2018-12-31T14:19:51.253Z,9.83
2018-12-31T14:22:21.888Z,12.57
2018-12-31T14:24:53.446Z,9.00
2018-12-31T14:27:24.262Z,14.37
2018-12-31T14:29:55.273Z,8.10
2018-12-31T14:32:26.242Z,8.53
2018-12-31T14:34:57.889Z,9.00
2018-12-31T14:37:29.584Z,9.13
2018-12-31T14:40:00.865Z,14.67
2018-12-31T14:42:31.497Z,19.83
2018-12-31T14:45:02.803Z,12.30
2018-12-31T14:47:33.479Z,13.77
2018-12-31T14:50:04.536Z,11.93
2018-12-31T14:52:36.316Z,10.90
2018-12-31T14:55:07.386Z,15.27
2018-12-31T14:57:40.051Z,13.83
2018-12-31T15:00:12.309Z,11.20
2018-12-31T15:02:44.543Z,15.43
2018-12-31T15:05:16.150Z,13.27
2018-12-31T15:07:47.719Z,13.80
2018-12-31T15:10:18.548Z,12.20
2018-12-31T15:12:49.451Z,14.57
2018-12-31T15:15:20.504Z,15.00
2018-12-31T15:17:51.704Z,10.33
2018-12-31T15:20:22.739Z,9.10
2018-12-31T15:22:54.339Z,12.87
2018-12-31T15:25:25.384Z,9.87
2018-12-31T15:27:56.908Z,12.37
2018-12-31T15:30:28.059Z,7.70
2018-12-31T15:33:00.361Z,9.90
2018-12-31T15:35:32.178Z,11.33
2018-12-31T15:38:03.163Z,9.47
2018-12-31T15:40:33.953Z,5.57
2018-12-31T15:43:04.953Z,9.53
2018-12-31T15:45:36.731Z,7.50
2018-12-31T15:48:08.437Z,7.37
2018-12-31T15:50:39.364Z,8.83
2018-12-31T15:53:10.426Z,8.43
2018-12-31T15:55:41.668Z,8.47
2018-12-31T15:58:13.132Z,13.77
2018-12-31T16:00:43.992Z,10.57
2018-12-31T16:03:15.357Z,11.80
2018-12-31T16:05:46.836Z,9.77
2018-12-31T16:08:18.547Z,14.57
2018-12-31T16:10:49.727Z,11.17
2018-12-31T16:13:20.835Z,8.00
2018-12-31T16:15:51.975Z,12.33
2018-12-31T16:18:24.506Z,10.87
2018-12-31T16:20:55.720Z,39.77
2018-12-31T16:23:26.949Z,10.00
2018-12-31T16:25:57.854Z,16.77
2018-12-31T16:28:29.773Z,15.73
2018-12-31T16:31:01.003Z,13.10
2018-12-31T16:33:32.099Z,18.70
2018-12-31T16:36:02.939Z,14.73
2018-12-31T16:38:34.214Z,21.10
2018-12-31T16:41:05.449Z,11.97
2018-12-31T16:43:36.580Z,21.23
2018-12-31T16:46:07.734Z,13.73
2018-12-31T16:48:38.269Z,13.03
2018-12-31T16:51:09.455Z,12.07
2018-12-31T16:53:40.518Z,22.43
2018-12-31T16:56:11.875Z,18.93
2018-12-31T16:58:43.481Z,16.90
2018-12-31T17:01:14.692Z,17.00
2018-12-31T17:03:45.831Z,22.97
2018-12-31T17:06:16.769Z,33.17
2018-12-31T17:08:47.992Z,57.30
2018-12-31T17:11:18.788Z,27.60
2018-12-31T17:13:50.533Z,25.43
2018-12-31T17:16:21.473Z,24.70
2018-12-31T17:18:52.699Z,26.30
2018-12-31T17:21:23.994Z,22.77
2018-12-31T17:23:54.831Z,21.67
2018-12-31T17:26:25.806Z,26.87
2018-12-31T17:28:56.884Z,24.40
2018-12-31T17:31:27.821Z,30.83
2018-12-31T17:33:58.802Z,27.17
2018-12-31T17:36:29.911Z,33.07
2018-12-31T17:39:01.239Z,26.93
2018-12-31T17:41:32.216Z,34.87
2018-12-31T17:44:02.604Z,30.40
2018-12-31T17:46:34.236Z,30.07
2018-12-31T17:49:04.970Z,37.83
2018-12-31T17:51:36.273Z,28.60
2018-12-31T17:54:06.715Z,27.60
2018-12-31T17:56:37.117Z,31.07
2018-12-31T17:59:08.038Z,30.20
2018-12-31T18:01:38.828Z,28.80
2018-12-31T18:04:09.606Z,31.40
2018-12-31T18:06:40.107Z,29.73
2018-12-31T18:09:10.946Z,33.53
2018-12-31T18:11:42.029Z,29.03
2018-12-31T18:14:12.394Z,30.53
2018-12-31T18:16:43.258Z,33.23
2018-12-31T18:19:14.121Z,29.90
2018-12-31T18:21:44.709Z,31.13
2018-12-31T18:24:15.833Z,30.03
2018-12-31T18:26:47.065Z,41.40
2018-12-31T18:29:18.057Z,31.50
2018-12-31T18:31:49.703Z,29.23
2018-12-31T18:34:20.574Z,31.63
2018-12-31T18:36:51.836Z,26.60
2018-12-31T18:39:22.797Z,27.67
2018-12-31T18:41:53.478Z,28.67
2018-12-31T18:44:23.947Z,24.63
2018-12-31T18:46:55.287Z,21.57
2018-12-31T18:49:26.474Z,30.03
2018-12-31T18:51:57.608Z,25.43
2018-12-31T18:54:28.922Z,26.27
2018-12-31T18:56:59.613Z,27.23
2018-12-31T18:59:30.667Z,26.43
2018-12-31T19:02:01.578Z,20.27
2018-12-31T19:04:32.293Z,20.83
2018-12-31T19:07:04.637Z,24.87
2018-12-31T19:09:36.734Z,17.33
2018-12-31T19:12:07.699Z,19.73
2018-12-31T19:14:38.594Z,22.77
2018-12-31T19:17:09.593Z,19.30
2018-12-31T19:19:41.984Z,18.13
2018-12-31T19:22:12.837Z,18.97
2018-12-31T19:24:43.365Z,26.23
2018-12-31T19:27:13.904Z,18.10
2018-12-31T19:29:44.289Z,20.30
2018-12-31T19:32:15.101Z,19.53
2018-12-31T19:34:46.414Z,129.73
2018-12-31T19:37:17.540Z,28.43
2018-12-31T19:39:48.944Z,27.53
2018-12-31T19:42:19.769Z,28.17
2018-12-31T19:44:51.655Z,32.90
2018-12-31T19:47:22.529Z,25.53
2018-12-31T19:49:54.503Z,31.63
2018-12-31T19:52:25.795Z,23.80
2018-12-31T19:54:58.484Z,49.90
2018-12-31T19:57:30.293Z,38.20
2018-12-31T20:00:01.459Z,29.27
2018-12-31T20:02:33.223Z,21.90
2018-12-31T20:05:05.235Z,26.70
2018-12-31T20:07:36.458Z,19.03
2018-12-31T20:10:08.080Z,24.87
2018-12-31T20:12:39.724Z,29.37
2018-12-31T20:15:10.824Z,26.30
2018-12-31T20:17:41.683Z,26.53
2018-12-31T20:20:12.160Z,24.23
2018-12-31T20:22:43.803Z,38.20
2018-12-31T20:25:14.357Z,36.63
2018-12-31T20:27:45.287Z,34.50
2018-12-31T20:30:17.469Z,34.37
2018-12-31T20:32:47.915Z,31.77
2018-12-31T20:35:20.186Z,27.97
2018-12-31T20:37:50.679Z,28.07
2018-12-31T20:40:21.272Z,26.13
2018-12-31T20:42:52.365Z,29.70
2018-12-31T20:45:23.753Z,24.23
2018-12-31T20:48:01.464Z,32.53
2018-12-31T20:50:27.356Z,39.17
2018-12-31T20:52:58.567Z,34.83
2018-12-31T20:55:29.330Z,35.83
2018-12-31T20:58:00.972Z,32.97
2018-12-31T21:00:31.204Z,42.50
2018-12-31T21:03:02.422Z,36.40
2018-12-31T21:05:34.654Z,46.90
2018-12-31T21:08:05.304Z,42.40
2018-12-31T21:10:36.050Z,45.70
2018-12-31T21:13:06.551Z,126.27
2018-12-31T21:15:37.787Z,101.93
2018-12-31T21:18:08.604Z,52.10
2018-12-31T21:20:39.634Z,58.23
2018-12-31T21:23:11.654Z,61.07
2018-12-31T21:25:42.946Z,59.80
2018-12-31T21:28:13.465Z,61.83
2018-12-31T21:30:45.626Z,67.07
2018-12-31T21:33:18.072Z,62.77
2018-12-31T21:35:49.085Z,60.90
2018-12-31T21:38:20.124Z,61.43
2018-12-31T21:40:50.538Z,53.73
2018-12-31T21:43:21.518Z,56.43
2018-12-31T21:45:53.689Z,52.67
2018-12-31T21:48:24.521Z,207.97
2018-12-31T21:50:55.574Z,141.80
2018-12-31T21:53:25.984Z,84.13
2018-12-31T21:55:56.601Z,58.80
2018-12-31T21:58:27.128Z,55.13
2018-12-31T22:00:57.521Z,57.00
2018-12-31T22:03:28.433Z,55.43
2018-12-31T22:05:59.405Z,56.87
2018-12-31T22:08:30.420Z,76.77
2018-12-31T22:11:01.603Z,72.13
2018-12-31T22:13:32.287Z,56.67
2018-12-31T22:16:03.104Z,58.23
2018-12-31T22:18:33.517Z,65.37
2018-12-31T22:21:05.021Z,70.57
2018-12-31T22:23:35.933Z,63.93
2018-12-31T22:26:07.190Z,76.10
2018-12-31T22:28:37.894Z,66.63
2018-12-31T22:31:09.341Z,67.57
2018-12-31T22:33:40.186Z,61.50
2018-12-31T22:36:10.867Z,61.33
2018-12-31T22:38:42.001Z,65.77
2018-12-31T22:41:12.973Z,55.97
2018-12-31T22:43:44.709Z,67.40
2018-12-31T22:46:15.760Z,69.20
2018-12-31T22:48:46.343Z,64.13
2018-12-31T22:51:17.246Z,60.37
2018-12-31T22:53:47.739Z,71.00
2018-12-31T22:56:18.288Z,65.30
2018-12-31T22:58:49.018Z,76.87
2018-12-31T23:01:19.626Z,194.57
2018-12-31T23:03:51.330Z,315.43
2018-12-31T23:06:22.500Z,311.33
2018-12-31T23:08:52.845Z,297.60
2018-12-31T23:11:24.149Z,183.77
2018-12-31T23:13:56.267Z,165.30
2018-12-31T23:16:28.427Z,223.53
2018-12-31T23:18:59.485Z,240.67
2018-12-31T23:21:30.295Z,193.87
2018-12-31T23:24:01.595Z,121.87
2018-12-31T23:26:32.255Z,123.20
2018-12-31T23:29:03.261Z,131.97
2018-12-31T23:31:34.298Z,111.73
2018-12-31T23:34:05.745Z,134.10
2018-12-31T23:36:37.179Z,133.37
2018-12-31T23:39:08.473Z,122.03
2018-12-31T23:41:39.331Z,113.80
2018-12-31T23:44:10.229Z,103.77
2018-12-31T23:46:40.676Z,112.90
2018-12-31T23:49:11.094Z,96.70
2018-12-31T23:51:42.016Z,148.63
2018-12-31T23:54:13.226Z,115.60
2018-12-31T23:56:44.796Z,93.57
2018-12-31T23:59:15.913Z,91.80
